| time (UTC) | temp F | wind direction | speed MPH | gust MPH | rain 1hr in | rain 24hr in | rain mn in | humidity % | barometer mb |
| 20260507025529 | 68 | 216 | 4.0 | 6.0 | 0.00 | 0.00 | 0.00 | 66 | 1017.5 |
| 20260507025026 | 68 | 207 | 1.0 | 2.0 | 0.00 | 0.00 | 0.00 | 65 | 1017.5 |
| 20260507024524 | 69 | 213 | 2.0 | 2.0 | 0.00 | 0.00 | 0.00 | 63 | 1017.2 |
| 20260507024020 | 69 | 222 | 0.0 | 0.0 | 0.00 | 0.00 | 0.00 | 63 | 1017.2 |
| 20260507023516 | 69 | 210 | 1.0 | 2.0 | 0.00 | 0.00 | 0.00 | 63 | 1017.5 |
| 20260507023014 | 69 | 230 | 2.0 | 3.0 | 0.00 | 0.00 | 0.00 | 62 | 1017.1 |
| 20260507022510 | 70 | 224 | 0.0 | 0.0 | 0.00 | 0.00 | 0.00 | 61 | 1017.1 |
| 20260507022006 | 70 | 221 | 0.0 | 0.0 | 0.00 | 0.00 | 0.00 | 61 | 1017.1 |
| 20260507021502 | 70 | 212 | 0.0 | 0.0 | 0.00 | 0.00 | 0.00 | 60 | 1017.2 |
| 20260507020959 | 70 | 231 | 0.0 | 0.0 | 0.00 | 0.00 | 0.00 | 60 | 1017.0 |
| 20260507020456 | 71 | 215 | 1.0 | 2.0 | 0.00 | 0.00 | 0.00 | 59 | 1016.9 |
| 20260507015953 | 71 | 225 | 1.0 | 1.0 | 0.00 | 0.00 | 0.00 | 59 | 1017.1 |
| 20260507015452 | 71 | 225 | 0.0 | 0.0 | 0.00 | 0.00 | 0.00 | 58 | 1016.8 |
| 20260507014948 | 72 | 198 | 4.0 | 6.0 | 0.00 | 0.00 | 0.00 | 58 | 1016.6 |
| 20260507014445 | 72 | 217 | 0.0 | 0.0 | 0.00 | 0.00 | 0.00 | 57 | 1016.5 |
| 20260507013941 | 72 | 202 | 0.0 | 0.0 | 0.00 | 0.00 | 0.00 | 57 | 1016.5 |
| 20260507013438 | 72 | 206 | 1.0 | 3.0 | 0.00 | 0.00 | 0.00 | 57 | 1016.5 |
| 20260507012935 | 73 | 217 | 1.0 | 1.0 | 0.00 | 0.00 | 0.00 | 56 | 1016.3 |
| 20260507012432 | 73 | 203 | 1.0 | 1.0 | 0.00 | 0.00 | 0.00 | 56 | 1016.3 |
| 20260507011928 | 74 | 209 | 1.0 | 2.0 | 0.00 | 0.00 | 0.00 | 55 | 1016.4 |
| 20260507011426 | 74 | 186 | 6.0 | 9.0 | 0.00 | 0.00 | 0.00 | 55 | 1016.3 |
| 20260507010925 | 75 | 233 | 5.0 | 8.0 | 0.00 | 0.00 | 0.00 | 53 | 1016.4 |
| 20260507010421 | 75 | 217 | 2.0 | 5.0 | 0.00 | 0.00 | 0.00 | 53 | 1016.5 |
| 20260507005918 | 75 | 206 | 3.0 | 3.0 | 0.00 | 0.00 | 0.00 | 53 | 1016.1 |
| 20260507005415 | 76 | 196 | 0.0 | 1.0 | 0.00 | 0.00 | 0.00 | 52 | 1016.2 |
| 20260507004912 | 76 | 202 | 3.0 | 5.0 | 0.00 | 0.00 | 0.00 | 52 | 1016.3 |
| 20260507004408 | 76 | 218 | 2.0 | 3.0 | 0.00 | 0.00 | 0.00 | 52 | 1016.2 |
| 20260507003906 | 77 | 193 | 1.0 | 2.0 | 0.00 | 0.00 | 0.00 | 51 | 1016.1 |
| 20260507003401 | 77 | 204 | 1.0 | 3.0 | 0.00 | 0.00 | 0.00 | 50 | 1016.2 |
| 20260507002857 | 77 | 202 | 3.0 | 8.0 | 0.00 | 0.00 | 0.00 | 50 | 1016.1 |
| 20260507002353 | 78 | 210 | 0.0 | 0.0 | 0.00 | 0.00 | 0.00 | 49 | 1016.0 |
| 20260507001850 | 78 | 202 | 0.0 | 0.0 | 0.00 | 0.00 | 0.00 | 48 | 1016.2 |
| 20260507001347 | 78 | 195 | 3.0 | 5.0 | 0.00 | 0.00 | 0.00 | 49 | 1016.1 |
| 20260507000843 | 78 | 218 | 3.0 | 3.0 | 0.00 | 0.00 | 0.00 | 49 | 1016.0 |
| 20260507000339 | 79 | 156 | 2.0 | 6.0 | 0.00 | 0.00 | 0.00 | 48 | 1016.0 |
| 20260506235836 | 78 | 214 | 2.0 | 5.0 | 0.00 | 0.00 | 0.00 | 48 | 1016.2 |
| 20260506235332 | 79 | 227 | 2.0 | 5.0 | 0.00 | 0.00 | 0.00 | 49 | 1015.8 |
| 20260506234828 | 80 | 181 | 4.0 | 7.0 | 0.00 | 0.00 | 0.00 | 48 | 1015.7 |
| 20260506234326 | 80 | 201 | 4.0 | 6.0 | 0.00 | 0.00 | 0.00 | 48 | 1016.0 |
| 20260506233824 | 79 | 202 | 0.0 | 1.0 | 0.00 | 0.00 | 0.00 | 48 | 1015.9 |
| 20260506233319 | 79 | 312 | 4.0 | 6.0 | 0.00 | 0.00 | 0.00 | 49 | 1015.9 |
| 20260506232817 | 80 | 218 | 0.0 | 0.0 | 0.00 | 0.00 | 0.00 | 47 | 1016.0 |
| 20260506232312 | 79 | 262 | 3.0 | 3.0 | 0.00 | 0.00 | 0.00 | 48 | 1015.9 |
| 20260506231809 | 80 | 258 | 0.0 | 0.0 | 0.00 | 0.00 | 0.00 | 46 | 1016.0 |
| 20260506231307 | 80 | 205 | 4.0 | 7.0 | 0.00 | 0.00 | 0.00 | 46 | 1015.8 |
| 20260506230804 | 79 | 244 | 7.0 | 9.0 | 0.00 | 0.00 | 0.00 | 47 | 1016.1 |
| 20260506230301 | 81 | 245 | 2.0 | 3.0 | 0.00 | 0.00 | 0.00 | 46 | 1016.1 |
| 20260506225757 | 80 | 216 | 2.0 | 3.0 | 0.00 | 0.00 | 0.00 | 46 | 1015.9 |
| 20260506225254 | 78 | 265 | 0.0 | 1.0 | 0.00 | 0.00 | 0.00 | 45 | 1016.2 |
| 20260506224745 | 80 | 265 | 0.0 | 1.0 | 0.00 | 0.00 | 0.00 | 44 | 1016.3 |
| 20260506224243 | 79 | 194 | 0.0 | 1.0 | 0.00 | 0.00 | 0.00 | 45 | 1016.3 |
| 20260506223738 | 80 | 276 | 3.0 | 5.0 | 0.00 | 0.00 | 0.00 | 46 | 1016.2 |
| 20260506223234 | 80 | 217 | 0.0 | 1.0 | 0.00 | 0.00 | 0.00 | 44 | 1016.1 |
| 20260506222731 | 79 | 211 | 2.0 | 3.0 | 0.00 | 0.00 | 0.00 | 45 | 1016.5 |
| 20260506222226 | 80 | 209 | 3.0 | 5.0 | 0.00 | 0.00 | 0.00 | 44 | 1016.4 |
| 20260506221725 | 79 | 197 | 3.0 | 5.0 | 0.00 | 0.00 | 0.00 | 45 | 1016.4 |
| 20260506221223 | 79 | 215 | 4.0 | 5.0 | 0.00 | 0.00 | 0.00 | 45 | 1016.5 |
| 20260506220720 | 77 | 228 | 3.0 | 3.0 | 0.00 | 0.00 | 0.00 | 48 | 1016.5 |
| 20260506220214 | 80 | 214 | 3.0 | 5.0 | 0.00 | 0.00 | 0.00 | 45 | 1016.9 |
| 20260506215711 | 78 | 258 | 1.0 | 2.0 | 0.00 | 0.00 | 0.00 | 48 | 1016.8 |
| 20260506215207 | 79 | 230 | 3.0 | 5.0 | 0.00 | 0.00 | 0.00 | 46 | 1016.9 |
| 20260506214704 | 80 | 212 | 2.0 | 3.0 | 0.00 | 0.00 | 0.00 | 45 | 1017.2 |
| 20260506214201 | 80 | 218 | 1.0 | 1.0 | 0.00 | 0.00 | 0.00 | 45 | 1017.1 |
| 20260506213659 | 79 | 154 | 0.0 | 1.0 | 0.00 | 0.00 | 0.00 | 45 | 1017.2 |
| 20260506213156 | 79 | 200 | 0.0 | 0.0 | 0.00 | 0.00 | 0.00 | 44 | 1017.4 |
| 20260506212653 | 79 | 174 | 0.0 | 0.0 | 0.00 | 0.00 | 0.00 | 47 | 1017.4 |
| 20260506212148 | 77 | 200 | 0.0 | 0.0 | 0.00 | 0.00 | 0.00 | 47 | 1017.7 |
| 20260506211644 | 76 | 220 | 3.0 | 6.0 | 0.00 | 0.00 | 0.00 | 46 | 1017.6 |
| 20260506211141 | 77 | 175 | 3.0 | 5.0 | 0.00 | 0.00 | 0.00 | 47 | 1017.4 |
| 20260506210638 | 76 | 175 | 0.0 | 0.0 | 0.00 | 0.00 | 0.00 | 46 | 1017.7 |
| 20260506210134 | 77 | 221 | 0.0 | 0.0 | 0.00 | 0.00 | 0.00 | 46 | 1017.7 |
| 20260506205632 | 75 | 164 | 3.0 | 5.0 | 0.00 | 0.00 | 0.00 | 46 | 1018.0 |
| 20260506205126 | 76 | 271 | 0.0 | 0.0 | 0.00 | 0.00 | 0.00 | 46 | 1017.9 |
| 20260506204625 | 75 | 238 | 0.0 | 0.0 | 0.00 | 0.00 | 0.00 | 47 | 1017.7 |
| 20260506204121 | 73 | 212 | 0.0 | 0.0 | 0.00 | 0.00 | 0.00 | 47 | 1018.0 |
| 20260506203619 | 72 | 256 | 0.0 | 1.0 | 0.00 | 0.00 | 0.00 | 49 | 1018.3 |
| 20260506203116 | 74 | 224 | 0.0 | 0.0 | 0.00 | 0.00 | 0.00 | 47 | 1018.2 |
| 20260506202614 | 73 | 5 | 3.0 | 5.0 | 0.00 | 0.00 | 0.00 | 49 | 1018.2 |
| 20260506202110 | 71 | 54 | 2.0 | 5.0 | 0.00 | 0.00 | 0.00 | 50 | 1018.0 |
| 20260506201607 | 75 | 183 | 1.0 | 1.0 | 0.00 | 0.00 | 0.00 | 48 | 1018.4 |
| 20260506201103 | 74 | 207 | 1.0 | 2.0 | 0.00 | 0.00 | 0.00 | 48 | 1018.5 |
| 20260506200600 | 74 | 190 | 0.0 | 0.0 | 0.00 | 0.00 | 0.00 | 46 | 1018.5 |
| 20260506200057 | 75 | 238 | 1.0 | 3.0 | 0.00 | 0.00 | 0.00 | 50 | 1018.7 |
| 20260506195553 | 72 | 245 | 0.0 | 0.0 | 0.00 | 0.00 | 0.00 | 50 | 1018.7 |
| 20260506195049 | 73 | 255 | 0.0 | 0.0 | 0.00 | 0.00 | 0.00 | 48 | 1018.8 |
| 20260506194548 | 71 | 228 | 0.0 | 0.0 | 0.00 | 0.00 | 0.00 | 50 | 1018.8 |
| 20260506194043 | 74 | 202 | 0.0 | 0.0 | 0.00 | 0.00 | 0.00 | 48 | 1018.9 |
| 20260506193541 | 72 | 219 | 0.0 | 0.0 | 0.00 | 0.00 | 0.00 | 50 | 1018.9 |
| 20260506193038 | 70 | 229 | 0.0 | 0.0 | 0.00 | 0.00 | 0.00 | 51 | 1018.8 |
| 20260506192535 | 71 | 289 | 0.0 | 0.0 | 0.00 | 0.00 | 0.00 | 52 | 1019.1 |
| 20260506192031 | 70 | 207 | 0.0 | 2.0 | 0.00 | 0.00 | 0.00 | 53 | 1018.9 |
| 20260506191528 | 70 | 196 | 0.0 | 1.0 | 0.00 | 0.00 | 0.00 | 53 | 1019.1 |
| 20260506191024 | 70 | 220 | 0.0 | 0.0 | 0.00 | 0.00 | 0.00 | 54 | 1019.2 |
| 20260506190521 | 70 | 201 | 0.0 | 0.0 | 0.00 | 0.00 | 0.00 | 52 | 1019.2 |
| 20260506190019 | 69 | 207 | 0.0 | 0.0 | 0.00 | 0.00 | 0.00 | 55 | 1019.3 |
| 20260506185515 | 69 | 222 | 0.0 | 0.0 | 0.00 | 0.00 | 0.00 | 54 | 1019.3 |
| 20260506185012 | 70 | 228 | 0.0 | 1.0 | 0.00 | 0.00 | 0.00 | 54 | 1019.4 |
| 20260506184509 | 69 | 163 | 2.0 | 2.0 | 0.00 | 0.00 | 0.00 | 55 | 1019.3 |
| 20260506184006 | 71 | 137 | 1.0 | 1.0 | 0.00 | 0.00 | 0.00 | 52 | 1019.7 |
| 20260506183502 | 69 | 164 | 1.0 | 2.0 | 0.00 | 0.00 | 0.00 | 55 | 1019.8 |
| 20260506182959 | 68 | 172 | 4.0 | 6.0 | 0.00 | 0.00 | 0.00 | 55 | 1019.8 |
| 20260506182456 | 66 | 287 | 0.0 | 1.0 | 0.00 | 0.00 | 0.00 | 60 | 1019.7 |
| 20260506181953 | 66 | 310 | 0.0 | 1.0 | 0.00 | 0.00 | 0.00 | 60 | 1019.7 |
| 20260506181451 | 68 | 262 | 2.0 | 2.0 | 0.00 | 0.00 | 0.00 | 59 | 1019.8 |
| 20260506180948 | 66 | 202 | 3.0 | 3.0 | 0.00 | 0.00 | 0.00 | 60 | 1019.7 |
| 20260506180444 | 68 | 333 | 2.0 | 3.0 | 0.00 | 0.00 | 0.00 | 60 | 1020.0 |
| 20260506175941 | 69 | 188 | 1.0 | 2.0 | 0.00 | 0.00 | 0.00 | 55 | 1019.9 |
| 20260506175438 | 65 | 319 | 1.0 | 2.0 | 0.00 | 0.00 | 0.00 | 61 | 1019.9 |
| 20260506174934 | 66 | 146 | 3.0 | 3.0 | 0.00 | 0.00 | 0.00 | 59 | 1019.9 |
| 20260506174433 | 68 | 284 | 2.0 | 2.0 | 0.00 | 0.00 | 0.00 | 59 | 1019.7 |
| 20260506173929 | 68 | 174 | 1.0 | 2.0 | 0.00 | 0.00 | 0.00 | 57 | 1019.7 |
| 20260506173426 | 67 | 195 | 0.0 | 0.0 | 0.00 | 0.00 | 0.00 | 59 | 1019.8 |
| 20260506172923 | 67 | 193 | 2.0 | 2.0 | 0.00 | 0.00 | 0.00 | 60 | 1019.8 |
| 20260506172420 | 63 | 233 | 1.0 | 3.0 | 0.00 | 0.00 | 0.00 | 64 | 1019.9 |
| 20260506171917 | 64 | 336 | 5.0 | 7.0 | 0.00 | 0.00 | 0.00 | 64 | 1020.0 |
| 20260506171414 | 66 | 239 | 5.0 | 6.0 | 0.00 | 0.00 | 0.00 | 60 | 1019.7 |
| 20260506170912 | 64 | 196 | 1.0 | 2.0 | 0.00 | 0.00 | 0.00 | 62 | 1020.0 |
| 20260506170407 | 64 | 357 | 3.0 | 3.0 | 0.00 | 0.00 | 0.00 | 65 | 1020.0 |
| 20260506165901 | 64 | 188 | 0.0 | 0.0 | 0.00 | 0.00 | 0.00 | 63 | 1020.0 |
| 20260506165359 | 65 | 241 | 0.0 | 0.0 | 0.00 | 0.00 | 0.00 | 63 | 1019.9 |
| 20260506164855 | 62 | 197 | 1.0 | 1.0 | 0.00 | 0.00 | 0.00 | 67 | 1019.8 |
| 20260506164351 | 64 | 119 | 2.0 | 2.0 | 0.00 | 0.00 | 0.00 | 65 | 1019.9 |
| 20260506163850 | 63 | 204 | 0.0 | 0.0 | 0.00 | 0.00 | 0.00 | 68 | 1020.0 |
| 20260506163343 | 64 | 162 | 0.0 | 0.0 | 0.00 | 0.00 | 0.00 | 67 | 1020.0 |
| 20260506162839 | 65 | 198 | 1.0 | 1.0 | 0.00 | 0.00 | 0.00 | 65 | 1019.9 |
| 20260506162337 | 64 | 209 | 0.0 | 0.0 | 0.00 | 0.00 | 0.00 | 67 | 1020.1 |
| 20260506161829 | 62 | 225 | 0.0 | 0.0 | 0.00 | 0.00 | 0.00 | 70 | 1019.9 |
| 20260506161326 | 64 | 226 | 1.0 | 2.0 | 0.00 | 0.00 | 0.00 | 66 | 1019.9 |
| 20260506160823 | 61 | 243 | 0.0 | 1.0 | 0.00 | 0.00 | 0.00 | 71 | 1020.1 |
| 20260506160320 | 61 | 40 | 2.0 | 3.0 | 0.00 | 0.00 | 0.00 | 72 | 1020.0 |
| 20260506155818 | 62 | 197 | 0.0 | 0.0 | 0.00 | 0.00 | 0.00 | 70 | 1020.0 |
| 20260506155314 | 61 | 201 | 0.0 | 0.0 | 0.00 | 0.00 | 0.00 | 72 | 1020.1 |
| 20260506153427 | 61 | 158 | 3.0 | 3.0 | 0.00 | 0.00 | 0.00 | 72 | 1020.0 |
| 20260506152925 | 60 | 189 | 1.0 | 1.0 | 0.00 | 0.00 | 0.00 | 73 | 1019.8 |
| 20260506152421 | 60 | 176 | 1.0 | 1.0 | 0.00 | 0.00 | 0.00 | 73 | 1020.1 |
| 20260506151920 | 60 | 175 | 2.0 | 2.0 | 0.00 | 0.00 | 0.00 | 75 | 1020.1 |
| 20260506151417 | 59 | 125 | 2.0 | 2.0 | 0.00 | 0.00 | 0.00 | 76 | 1020.2 |
| 20260506150914 | 60 | 181 | 1.0 | 2.0 | 0.00 | 0.00 | 0.00 | 75 | 1020.3 |
| 20260506150410 | 60 | 162 | 1.0 | 2.0 | 0.00 | 0.00 | 0.00 | 75 | 1020.1 |
| 20260506145908 | 60 | 182 | 1.0 | 1.0 | 0.00 | 0.00 | 0.00 | 75 | 1020.2 |
| 20260506145403 | 59 | 149 | 2.0 | 2.0 | 0.00 | 0.00 | 0.00 | 75 | 1020.2 |
| 20260506144901 | 59 | 180 | 1.0 | 1.0 | 0.00 | 0.00 | 0.00 | 76 | 1020.0 |
| 20260506144357 | 58 | 183 | 1.0 | 1.0 | 0.00 | 0.00 | 0.00 | 78 | 1020.3 |
| 20260506143856 | 59 | 193 | 1.0 | 2.0 | 0.00 | 0.00 | 0.00 | 79 | 1020.1 |
| 20260506143352 | 59 | 191 | 0.0 | 0.0 | 0.00 | 0.00 | 0.00 | 80 | 1019.8 |
| 20260506142851 | 59 | 233 | 0.0 | 0.0 | 0.00 | 0.00 | 0.00 | 81 | 1020.0 |
| 20260506142348 | 59 | 235 | 0.0 | 0.0 | 0.00 | 0.00 | 0.00 | 84 | 1020.1 |
| 20260506141847 | 57 | 235 | 0.0 | 0.0 | 0.00 | 0.00 | 0.00 | 86 | 1020.0 |
| 20260506141344 | 56 | 234 | 0.0 | 0.0 | 0.00 | 0.00 | 0.00 | 89 | 1019.9 |
| 20260506140842 | 55 | 235 | 0.0 | 0.0 | 0.00 | 0.00 | 0.00 | 93 | 1020.0 |
| 20260506140339 | 54 | 236 | 0.0 | 0.0 | 0.00 | 0.00 | 0.00 | 94 | 1020.0 |
| 20260506135836 | 53 | 236 | 0.0 | 0.0 | 0.00 | 0.00 | 0.00 | 95 | 1019.9 |
| 20260506135332 | 52 | 237 | 0.0 | 0.0 | 0.00 | 0.00 | 0.00 | 96 | 1019.9 |
| 20260506134828 | 52 | 237 | 0.0 | 0.0 | 0.00 | 0.00 | 0.00 | 97 | 1019.6 |
| 20260506134325 | 51 | 237 | 0.0 | 0.0 | 0.00 | 0.00 | 0.00 | 97 | 1019.7 |
| 20260506133823 | 51 | 237 | 0.0 | 0.0 | 0.00 | 0.00 | 0.00 | 97 | 1019.8 |
| 20260506133319 | 50 | 238 | 0.0 | 0.0 | 0.00 | 0.00 | 0.00 | 97 | 1019.8 |
| 20260506132816 | 49 | 237 | 0.0 | 0.0 | 0.00 | 0.00 | 0.00 | 97 | 1019.6 |
| 20260506132313 | 48 | 236 | 0.0 | 0.0 | 0.00 | 0.00 | 0.00 | 97 | 1019.7 |
| 20260506131811 | 48 | 236 | 0.0 | 0.0 | 0.00 | 0.00 | 0.00 | 97 | 1019.3 |
| 20260506131307 | 48 | 236 | 0.0 | 0.0 | 0.00 | 0.00 | 0.00 | 97 | 1019.6 |
| 20260506130804 | 48 | 236 | 0.0 | 0.0 | 0.00 | 0.00 | 0.00 | 97 | 1019.2 |
| 20260506130300 | 48 | 236 | 0.0 | 0.0 | 0.00 | 0.00 | 0.00 | 97 | 1019.4 |
| 20260506125759 | 48 | 236 | 0.0 | 0.0 | 0.00 | 0.00 | 0.00 | 97 | 1019.2 |
| 20260506125256 | 48 | 236 | 0.0 | 0.0 | 0.00 | 0.00 | 0.00 | 97 | 1019.3 |
| 20260506124755 | 48 | 236 | 0.0 | 0.0 | 0.00 | 0.00 | 0.00 | 97 | 1019.3 |
| 20260506124252 | 48 | 236 | 0.0 | 0.0 | 0.00 | 0.00 | 0.00 | 97 | 1019.3 |
| 20260506123749 | 48 | 236 | 0.0 | 0.0 | 0.00 | 0.00 | 0.00 | 97 | 1019.1 |
| 20260506123248 | 48 | 236 | 0.0 | 0.0 | 0.00 | 0.00 | 0.00 | 96 | 1019.3 |
| 20260506122744 | 48 | 236 | 0.0 | 0.0 | 0.00 | 0.00 | 0.00 | 96 | 1019.0 |
| 20260506122241 | 48 | 236 | 0.0 | 0.0 | 0.00 | 0.00 | 0.00 | 96 | 1019.0 |
| 20260506121739 | 49 | 235 | 0.0 | 0.0 | 0.00 | 0.00 | 0.00 | 96 | 1019.1 |
| 20260506121236 | 49 | 236 | 0.0 | 0.0 | 0.00 | 0.00 | 0.00 | 96 | 1019.1 |
| 20260506120733 | 49 | 236 | 0.0 | 0.0 | 0.00 | 0.00 | 0.00 | 96 | 1019.2 |
| 20260506120231 | 49 | 236 | 0.0 | 0.0 | 0.00 | 0.00 | 0.00 | 96 | 1019.2 |
| 20260506115729 | 49 | 236 | 0.0 | 0.0 | 0.00 | 0.00 | 0.00 | 96 | 1018.9 |
| 20260506115227 | 49 | 236 | 0.0 | 0.0 | 0.00 | 0.00 | 0.00 | 96 | 1019.0 |
| 20260506114724 | 49 | 236 | 0.0 | 0.0 | 0.00 | 0.00 | 0.00 | 96 | 1018.9 |
| 20260506114221 | 50 | 236 | 0.0 | 0.0 | 0.00 | 0.00 | 0.00 | 95 | 1019.0 |
| 20260506113720 | 49 | 236 | 0.0 | 0.0 | 0.00 | 0.00 | 0.00 | 96 | 1019.0 |
| 20260506113217 | 49 | 236 | 0.0 | 0.0 | 0.00 | 0.00 | 0.00 | 95 | 1019.0 |
| 20260506112713 | 49 | 236 | 0.0 | 0.0 | 0.00 | 0.00 | 0.00 | 95 | 1018.9 |
| 20260506112211 | 50 | 236 | 0.0 | 0.0 | 0.00 | 0.00 | 0.00 | 95 | 1018.8 |
| 20260506111708 | 50 | 236 | 0.0 | 0.0 | 0.00 | 0.00 | 0.00 | 95 | 1018.9 |
| 20260506111206 | 49 | 236 | 0.0 | 0.0 | 0.00 | 0.00 | 0.00 | 95 | 1018.7 |
| 20260506110703 | 49 | 236 | 0.0 | 0.0 | 0.00 | 0.00 | 0.00 | 95 | 1018.8 |
| 20260506110201 | 50 | 235 | 0.0 | 0.0 | 0.00 | 0.00 | 0.00 | 95 | 1018.8 |
| 20260506105657 | 50 | 236 | 0.0 | 0.0 | 0.00 | 0.00 | 0.00 | 95 | 1018.9 |
| 20260506105154 | 50 | 235 | 0.0 | 0.0 | 0.00 | 0.00 | 0.00 | 95 | 1019.0 |
| 20260506104652 | 49 | 235 | 0.0 | 0.0 | 0.00 | 0.00 | 0.00 | 95 | 1018.7 |
| 20260506104149 | 49 | 235 | 0.0 | 0.0 | 0.00 | 0.00 | 0.00 | 94 | 1018.8 |
| 20260506103646 | 49 | 235 | 0.0 | 0.0 | 0.00 | 0.00 | 0.00 | 94 | 1019.0 |
| 20260506103143 | 50 | 235 | 0.0 | 0.0 | 0.00 | 0.00 | 0.00 | 94 | 1018.9 |
| 20260506102642 | 50 | 236 | 0.0 | 0.0 | 0.00 | 0.00 | 0.00 | 94 | 1018.9 |
| 20260506102138 | 50 | 236 | 0.0 | 0.0 | 0.00 | 0.00 | 0.00 | 93 | 1018.7 |
| 20260506101635 | 50 | 235 | 0.0 | 0.0 | 0.00 | 0.00 | 0.00 | 93 | 1018.9 |
| 20260506101132 | 50 | 235 | 0.0 | 0.0 | 0.00 | 0.00 | 0.00 | 93 | 1018.8 |
| 20260506100631 | 50 | 235 | 0.0 | 0.0 | 0.00 | 0.00 | 0.00 | 92 | 1018.7 |
| 20260506100128 | 50 | 235 | 0.0 | 0.0 | 0.00 | 0.00 | 0.00 | 92 | 1019.0 |
| 20260506095627 | 50 | 235 | 0.0 | 0.0 | 0.00 | 0.00 | 0.00 | 92 | 1018.9 |
| 20260506095123 | 51 | 236 | 0.0 | 0.0 | 0.00 | 0.00 | 0.00 | 92 | 1018.8 |
| 20260506094620 | 51 | 236 | 0.0 | 0.0 | 0.00 | 0.00 | 0.00 | 91 | 1018.9 |
| 20260506094118 | 51 | 235 | 0.0 | 0.0 | 0.00 | 0.00 | 0.00 | 91 | 1018.8 |
| 20260506093616 | 51 | 235 | 0.0 | 0.0 | 0.00 | 0.00 | 0.00 | 91 | 1019.0 |
| 20260506093113 | 51 | 235 | 0.0 | 0.0 | 0.00 | 0.00 | 0.00 | 90 | 1018.8 |
| 20260506092611 | 51 | 235 | 0.0 | 0.0 | 0.00 | 0.00 | 0.00 | 90 | 1018.9 |
| 20260506092108 | 52 | 235 | 0.0 | 0.0 | 0.00 | 0.00 | 0.00 | 90 | 1019.1 |
| 20260506091606 | 52 | 235 | 0.0 | 0.0 | 0.00 | 0.00 | 0.00 | 89 | 1018.9 |
| 20260506091103 | 52 | 235 | 0.0 | 0.0 | 0.00 | 0.00 | 0.00 | 89 | 1019.0 |
| 20260506090601 | 53 | 236 | 0.0 | 0.0 | 0.00 | 0.00 | 0.00 | 89 | 1018.7 |
| 20260506090057 | 53 | 236 | 0.0 | 0.0 | 0.00 | 0.00 | 0.00 | 89 | 1018.9 |
| 20260506085554 | 52 | 235 | 0.0 | 0.0 | 0.00 | 0.00 | 0.00 | 88 | 1018.9 |
| 20260506085050 | 53 | 235 | 0.0 | 0.0 | 0.00 | 0.00 | 0.00 | 88 | 1019.0 |
| 20260506084547 | 53 | 235 | 0.0 | 0.0 | 0.00 | 0.00 | 0.00 | 88 | 1019.1 |
| 20260506084043 | 53 | 235 | 0.0 | 0.0 | 0.00 | 0.00 | 0.00 | 88 | 1018.9 |
| 20260506083541 | 52 | 235 | 0.0 | 0.0 | 0.00 | 0.00 | 0.00 | 88 | 1019.2 |
| 20260506083038 | 52 | 235 | 0.0 | 0.0 | 0.00 | 0.00 | 0.00 | 88 | 1019.0 |
| 20260506082535 | 53 | 235 | 0.0 | 0.0 | 0.00 | 0.00 | 0.00 | 88 | 1019.1 |
| 20260506082030 | 52 | 235 | 0.0 | 0.0 | 0.00 | 0.00 | 0.00 | 88 | 1019.2 |
| 20260506081529 | 52 | 235 | 0.0 | 0.0 | 0.00 | 0.00 | 0.00 | 87 | 1018.9 |
| 20260506081026 | 53 | 235 | 0.0 | 0.0 | 0.00 | 0.00 | 0.00 | 87 | 1019.2 |
| 20260506080523 | 53 | 235 | 0.0 | 0.0 | 0.00 | 0.00 | 0.00 | 87 | 1019.1 |
| 20260506073507 | 52 | 235 | 0.0 | 0.0 | 0.00 | 0.00 | 0.00 | 86 | 1019.1 |
| 20260506073004 | 53 | 235 | 0.0 | 0.0 | 0.00 | 0.00 | 0.00 | 86 | 1019.1 |
| 20260506072501 | 53 | 235 | 0.0 | 0.0 | 0.00 | 0.00 | 0.00 | 86 | 1019.3 |
| 20260506071959 | 53 | 235 | 0.0 | 0.0 | 0.00 | 0.00 | 0.00 | 86 | 1019.3 |
| 20260506071456 | 53 | 235 | 0.0 | 0.0 | 0.00 | 0.00 | 0.00 | 86 | 1019.2 |
| 20260506070953 | 53 | 236 | 0.0 | 0.0 | 0.00 | 0.00 | 0.00 | 86 | 1019.1 |
| 20260506070450 | 53 | 236 | 0.0 | 0.0 | 0.00 | 0.00 | 0.00 | 86 | 1019.2 |
| 20260506062428 | 54 | 235 | 0.0 | 0.0 | 0.00 | 0.34 | 0.34 | 83 | 1018.9 |
| 20260506061923 | 54 | 235 | 0.0 | 0.0 | 0.00 | 0.34 | 0.34 | 83 | 1018.6 |
| 20260506061420 | 55 | 235 | 0.0 | 0.0 | 0.00 | 0.34 | 0.34 | 82 | 1018.5 |
| 20260506060918 | 55 | 235 | 0.0 | 0.0 | 0.00 | 0.34 | 0.34 | 82 | 1018.6 |
| 20260506060416 | 55 | 235 | 0.0 | 0.0 | 0.00 | 0.34 | 0.34 | 82 | 1018.5 |
| 20260506051348 | 55 | 233 | 0.0 | 0.0 | 0.00 | 0.34 | 0.34 | 80 | 1018.3 |
| 20260506050845 | 55 | 232 | 0.0 | 0.0 | 0.00 | 0.34 | 0.34 | 79 | 1018.2 |
| 20260506050343 | 56 | 232 | 1.0 | 1.0 | 0.00 | 0.34 | 0.34 | 78 | 1018.1 |
| 20260506044833 | 56 | 224 | 1.0 | 1.0 | 0.00 | 0.34 | 0.34 | 78 | 1018.0 |
| 20260506044331 | 56 | 222 | 0.0 | 0.0 | 0.00 | 0.34 | 0.34 | 77 | 1017.8 |
| 20260506043828 | 56 | 222 | 0.0 | 0.0 | 0.00 | 0.34 | 0.34 | 76 | 1017.9 |
| 20260506043325 | 56 | 222 | 0.0 | 0.0 | 0.00 | 0.34 | 0.34 | 76 | 1017.8 |
| 20260506042823 | 57 | 222 | 0.0 | 0.0 | 0.00 | 0.34 | 0.34 | 75 | 1017.7 |
| 20260506042322 | 57 | 220 | 0.0 | 0.0 | 0.00 | 0.34 | 0.34 | 74 | 1017.5 |
| 20260506041821 | 57 | 220 | 0.0 | 0.0 | 0.00 | 0.34 | 0.34 | 73 | 1017.7 |
| 20260506041317 | 58 | 219 | 1.0 | 2.0 | 0.00 | 0.34 | 0.34 | 73 | 1017.4 |
| 20260506040814 | 58 | 217 | 0.0 | 0.0 | 0.00 | 0.34 | 0.34 | 72 | 1017.3 |
| 20260506040312 | 58 | 219 | 1.0 | 2.0 | 0.00 | 0.34 | 0.34 | 72 | 1017.5 |
| 20260506035808 | 58 | 217 | 0.0 | 0.0 | 0.00 | 0.34 | 0.34 | 71 | 1017.1 |
| 20260506035306 | 58 | 213 | 0.0 | 0.0 | 0.00 | 0.34 | 0.34 | 71 | 1017.2 |
| 20260506034803 | 59 | 216 | 1.0 | 1.0 | 0.00 | 0.34 | 0.34 | 70 | 1017.1 |
| 20260506034259 | 59 | 203 | 3.0 | 5.0 | 0.00 | 0.34 | 0.34 | 70 | 1017.1 |
| 20260506033756 | 59 | 215 | 0.0 | 0.0 | 0.00 | 0.34 | 0.34 | 69 | 1016.8 |
| 20260506033253 | 59 | 217 | 0.0 | 0.0 | 0.00 | 0.34 | 0.34 | 68 | 1016.5 |
| 20260506032750 | 59 | 213 | 3.0 | 3.0 | 0.00 | 0.34 | 0.34 | 67 | 1016.6 |
| 20260506032247 | 59 | 196 | 1.0 | 2.0 | 0.00 | 0.34 | 0.34 | 67 | 1016.5 |
| 20260506031744 | 60 | 182 | 2.0 | 3.0 | 0.00 | 0.34 | 0.34 | 66 | 1016.6 |
| 20260506031241 | 60 | 238 | 5.0 | 9.0 | 0.00 | 0.34 | 0.34 | 65 | 1016.4 |
| 20260506030739 | 60 | 202 | 3.0 | 5.0 | 0.00 | 0.34 | 0.34 | 65 | 1016.4 |
| 20260506030237 | 60 | 212 | 3.0 | 3.0 | 0.00 | 0.34 | 0.34 | 64 | 1016.3 |
| 20260506025733 | 60 | 191 | 3.0 | 5.0 | 0.00 | 0.34 | 0.34 | 63 | 1016.2 |